Time;durP1;ratioP1;P1;durP2;ratioP2;P2;SDS_P1;SDS_P2;PMS_P1;PMS_P2;Temp;Humidity;BMP_temperature;BMP_pressure;BME280_temperature;BME280_humidity;BME280_pressure;Samples;Min_cycle;Max_cycle;Signal;HPM_P1;HPM_P2
2022/08/01 00:00:31;;;;;;;4.28;1.50;;;;;;;20.07;60.11;98701.53;5086995;28;21269;-60
2022/08/01 00:02:57;;;;;;;2.72;1.50;;;;;;;20.07;59.74;98687.78;5089364;28;20474;-60
2022/08/01 00:05:22;;;;;;;5.53;1.33;;;;;;;20.15;59.41;98690.03;5092917;28;20564;-60
2022/08/01 00:07:48;;;;;;;1.90;1.60;;;;;;;20.22;59.43;98689.75;5090781;28;20477;-60
2022/08/01 00:10:15;;;;;;;2.58;1.80;;;;;;;20.27;59.10;98696.09;5091922;28;20016;-60
2022/08/01 00:12:42;;;;;;;2.08;1.70;;;;;;;20.36;59.02;98690.91;5090955;28;20027;-60
2022/08/01 00:15:10;;;;;;;2.15;1.77;;;;;;;20.32;59.53;98689.78;5083962;28;20102;-59
2022/08/01 00:17:35;;;;;;;1.73;1.33;;;;;;;20.19;60.26;98691.13;5077547;28;20474;-60
2022/08/01 00:20:03;;;;;;;2.83;1.73;;;;;;;20.14;60.96;98700.16;5084170;28;20126;-60
2022/08/01 00:22:30;;;;;;;7.05;1.70;;;;;;;19.83;62.85;98699.22;5088653;28;20019;-60
2022/08/01 00:24:56;;;;;;;6.40;1.80;;;;;;;19.63;63.96;98699.06;5087647;28;22363;-60
2022/08/01 00:27:21;;;;;;;4.40;1.80;;;;;;;19.46;64.89;98697.28;5091634;28;20026;-60
2022/08/01 00:29:46;;;;;;;3.33;1.80;;;;;;;19.45;65.18;98700.31;5088633;28;20019;-60
2022/08/01 00:32:12;;;;;;;3.15;1.50;;;;;;;19.25;66.63;98695.50;5106964;28;20053;-61
2022/08/01 00:34:37;;;;;;;3.92;1.42;;;;;;;19.32;66.86;98703.50;5084196;28;20051;-60
2022/08/01 00:37:02;;;;;;;2.50;1.77;;;;;;;19.18;67.77;98705.88;5084995;28;20033;-60
2022/08/01 00:39:28;;;;;;;6.03;1.77;;;;;;;19.26;68.01;98708.13;5085006;28;20114;-60
2022/08/01 00:41:53;;;;;;;2.78;1.52;;;;;;;19.29;67.33;98710.34;5089350;28;20455;-60
2022/08/01 00:44:18;;;;;;;2.45;1.80;;;;;;;19.21;67.66;98697.94;5088651;28;20027;-60
2022/08/01 00:46:44;;;;;;;3.35;1.77;;;;;;;19.14;68.67;98700.06;5089468;28;20161;-60
2022/08/01 00:49:09;;;;;;;1.73;1.38;;;;;;;19.07;69.18;98704.94;5089193;28;20023;-60
2022/08/01 00:51:34;;;;;;;2.75;1.52;;;;;;;18.98;69.99;98710.09;5085004;28;20047;-60
2022/08/01 00:54:00;;;;;;;3.65;1.73;;;;;;;19.06;69.17;98714.25;5089395;28;20025;-60
2022/08/01 00:56:27;;;;;;;2.58;1.52;;;;;;;19.08;69.46;98716.75;5090201;28;20062;-60
2022/08/01 00:58:54;;;;;;;2.55;1.67;;;;;;;19.05;70.06;98713.44;5079684;28;20109;-60
2022/08/01 01:01:21;;;;;;;3.63;1.88;;;;;;;18.99;70.28;98714.50;5091219;28;20372;-60
2022/08/01 01:03:48;;;;;;;5.72;1.80;;;;;;;18.97;71.23;98715.84;5088702;28;20126;-60
2022/08/01 01:06:48;;;;;;;2.58;1.73;;;;;;;18.95;71.58;98718.00;5091921;28;20030;-60
2022/08/01 01:09:39;;;;;;;6.25;1.75;;;;;;;18.81;72.57;98721.19;5077546;28;20426;-60
2022/08/01 01:12:29;;;;;;;3.03;2.00;;;;;;;18.80;73.35;98719.50;5089606;28;20095;-62
2022/08/01 01:15:04;;;;;;;2.97;1.80;;;;;;;18.79;72.50;98717.03;5089163;28;20386;-60
2022/08/01 01:18:03;;;;;;;4.00;1.90;;;;;;;18.87;72.06;98721.22;5107590;28;20065;-60
2022/08/01 01:20:42;;;;;;;2.58;2.10;;;;;;;18.93;70.79;98726.47;5051318;28;20106;-60
2022/08/01 01:23:52;;;;;;;3.53;2.00;;;;;;;18.99;70.85;98732.84;5103288;28;20051;-60
2022/08/01 01:26:52;;;;;;;3.95;1.92;;;;;;;19.11;70.01;98725.28;5025741;28;20115;-59
2022/08/01 01:29:25;;;;;;;5.30;1.92;;;;;;;19.32;69.23;98728.19;5096337;28;20073;-60
2022/08/01 01:32:14;;;;;;;2.53;1.70;;;;;;;19.39;68.89;98729.63;5090314;28;20041;-60
2022/08/01 01:34:42;;;;;;;2.58;1.88;;;;;;;19.42;68.22;98729.09;5085546;28;20039;-60
2022/08/01 01:37:12;;;;;;;3.23;1.87;;;;;;;19.63;67.44;98724.59;5099810;28;20461;-60
2022/08/01 01:39:41;;;;;;;2.15;1.55;;;;;;;19.67;66.92;98730.38;5086758;28;20284;-60
2022/08/01 01:42:08;;;;;;;4.60;1.70;;;;;;;19.74;67.01;98731.00;5090701;28;20027;-60
2022/08/01 01:44:35;;;;;;;2.35;1.65;;;;;;;19.83;66.72;98728.56;5089864;28;20023;-60
2022/08/01 01:47:02;;;;;;;2.15;1.77;;;;;;;19.82;66.83;98729.66;5093483;28;20081;-60
2022/08/01 01:49:29;;;;;;;2.15;1.67;;;;;;;19.84;67.14;98731.06;5085537;27;20038;-60
2022/08/01 01:51:57;;;;;;;2.08;1.70;;;;;;;19.83;66.71;98740.41;5093244;28;20027;-60
2022/08/01 01:54:42;;;;;;;2.42;1.80;;;;;;;19.70;66.71;98733.44;5094617;28;20053;-60
2022/08/01 01:57:09;;;;;;;2.65;1.83;;;;;;;19.66;68.50;98734.22;5092422;28;20517;-60
2022/08/01 01:59:37;;;;;;;3.33;1.58;;;;;;;19.66;68.18;98734.22;5088533;27;20023;-60
2022/08/01 02:02:05;;;;;;;3.42;2.00;;;;;;;19.66;69.18;98735.06;5091399;28;20096;-60
2022/08/01 02:04:32;;;;;;;3.25;1.95;;;;;;;19.61;68.82;98732.25;5092414;28;20027;-58
2022/08/01 02:07:00;;;;;;;4.95;2.20;;;;;;;19.36;70.28;98727.41;5088066;28;20034;-59
2022/08/01 02:09:27;;;;;;;3.60;2.00;;;;;;;19.02;72.71;98729.56;5089602;28;20024;-58
2022/08/01 02:11:55;;;;;;;4.20;2.30;;;;;;;18.82;74.91;98735.72;5093275;28;20160;-58
2022/08/01 02:14:23;;;;;;;5.55;2.45;;;;;;;18.87;75.34;98738.50;5093407;28;20030;-58
2022/08/01 02:16:50;;;;;;;6.03;2.05;;;;;;;18.77;75.37;98739.22;5093419;28;20042;-58
2022/08/01 02:19:19;;;;;;;9.80;2.35;;;;;;;18.65;76.46;98737.66;5085579;28;20672;-59
2022/08/01 02:21:57;;;;;;;9.77;1.80;;;;;;;18.43;78.73;98749.50;5090081;28;20030;-59
2022/08/01 02:24:37;;;;;;;4.20;1.95;;;;;;;18.59;77.74;98743.09;5092789;28;20034;-58
2022/08/01 02:27:08;;;;;;;4.47;2.00;;;;;;;18.68;77.96;98740.75;5100611;28;20031;-58
2022/08/01 02:29:41;;;;;;;4.43;1.80;;;;;;;18.54;78.94;98762.22;5088446;28;20157;-58
2022/08/01 02:32:10;;;;;;;5.47;2.08;;;;;;;18.66;78.51;98761.28;5091826;28;20011;-58
2022/08/01 02:34:35;;;;;;;5.45;1.90;;;;;;;18.52;79.66;98758.94;5093374;28;20513;-58
2022/08/01 02:37:03;;;;;;;5.68;2.53;;;;;;;18.47;80.40;98758.00;5088319;28;20032;-59
2022/08/01 02:39:31;;;;;;;5.38;2.05;;;;;;;18.31;82.55;98765.22;5085093;28;20031;-58
2022/08/01 02:42:01;;;;;;;4.65;2.30;;;;;;;18.27;83.65;98761.34;5095239;28;20023;-58
2022/08/01 02:44:32;;;;;;;4.15;2.20;;;;;;;18.27;84.07;98761.34;5095746;28;20043;-58
2022/08/01 02:47:03;;;;;;;4.28;2.03;;;;;;;18.20;85.04;98764.25;5105866;27;20406;-58
2022/08/01 02:49:34;;;;;;;5.47;2.20;;;;;;;18.06;86.47;98769.28;5089403;28;20029;-58
2022/08/01 02:52:06;;;;;;;4.60;2.60;;;;;;;17.80;89.72;98770.00;5092370;28;20110;-58
2022/08/01 02:54:33;;;;;;;5.47;2.50;;;;;;;17.86;89.25;98771.75;5084923;28;20027;-58
2022/08/01 02:57:00;;;;;;;3.92;2.78;;;;;;;17.83;90.01;98762.13;5082795;28;20516;-58
2022/08/01 02:59:27;;;;;;;4.43;2.50;;;;;;;17.86;89.93;98766.25;5091729;28;20020;-59
2022/08/01 03:01:57;;;;;;;3.53;2.67;;;;;;;17.90;89.44;98770.16;5095224;28;20073;-58
2022/08/01 03:04:25;;;;;;;5.70;2.85;;;;;;;17.80;90.55;98764.53;5092224;28;20031;-58
2022/08/01 03:06:54;;;;;;;3.80;2.58;;;;;;;17.89;89.18;98763.00;5098256;28;20035;-63
2022/08/01 03:09:19;;;;;;;3.13;2.30;;;;;;;17.93;88.46;98759.53;5094768;28;20035;-59
2022/08/01 03:11:47;;;;;;;9.23;2.20;;;;;;;17.90;89.03;98767.44;5088745;28;20023;-59
2022/08/01 03:14:15;;;;;;;8.88;2.92;;;;;;;17.86;89.57;98774.47;5082378;28;20041;-58
2022/08/01 03:16:44;;;;;;;3.42;2.10;;;;;;;17.86;88.82;98771.75;5088961;27;20039;-58
2022/08/01 03:19:12;;;;;;;4.40;2.30;;;;;;;17.93;89.50;98764.19;5077680;28;20062;-59
2022/08/01 03:21:39;;;;;;;2.28;1.95;;;;;;;17.93;89.68;98764.19;5091718;28;20058;-59
2022/08/01 03:24:07;;;;;;;3.05;2.15;;;;;;;17.90;90.37;98765.50;5084910;28;20038;-59
2022/08/01 03:26:35;;;;;;;4.13;2.22;;;;;;;17.93;89.68;98772.41;5092209;28;20015;-59
2022/08/01 03:29:06;;;;;;;2.50;2.08;;;;;;;18.01;89.67;98768.41;5093327;27;20027;-59
2022/08/01 03:31:35;;;;;;;2.97;2.10;;;;;;;18.05;92.05;98764.06;5094903;28;20118;-59
2022/08/01 03:34:00;;;;;;;2.75;2.00;;;;;;;18.13;93.92;98763.63;5103757;28;20019;-59
2022/08/01 03:36:28;;;;;;;2.72;2.10;;;;;;;18.15;89.26;98766.94;5092115;28;20031;-59
2022/08/01 03:38:56;;;;;;;4.50;2.50;;;;;;;18.00;90.10;98781.25;5086705;28;20424;-60
2022/08/01 03:41:25;;;;;;;4.72;2.78;;;;;;;17.95;91.64;98781.19;5105681;28;20030;-59
2022/08/01 03:44:01;;;;;;;5.13;3.00;;;;;;;17.65;94.40;98774.13;5087896;28;20047;-59
2022/08/01 03:48:58;;;;;;;6.60;2.80;;;;;;;17.58;98.47;98780.84;5036845;28;20064;-61
2022/08/01 03:51:24;;;;;;;8.25;2.90;;;;;;;17.35;98.00;98787.34;5030525;28;20064;-61
2022/08/01 03:53:51;;;;;;;6.25;2.92;;;;;;;17.34;100.00;98786.47;5045717;28;20052;-61
2022/08/01 03:56:19;;;;;;;6.60;2.75;;;;;;;17.20;100.00;98776.97;5014757;28;20026;-61
2022/08/01 03:58:46;;;;;;;10.73;3.50;;;;;;;17.04;100.00;98789.53;5009008;28;20033;-61
2022/08/01 04:01:12;;;;;;;5.53;3.00;;;;;;;16.94;100.00;98786.59;5019108;28;20081;-60
2022/08/01 04:03:38;;;;;;;9.52;2.90;;;;;;;16.89;100.00;98783.78;5013201;28;20123;-61
2022/08/01 04:06:05;;;;;;;3.30;2.72;;;;;;;16.89;100.00;98790.06;5013447;28;20021;-62
2022/08/01 04:08:39;;;;;;;3.80;2.30;;;;;;;16.90;100.00;98783.56;5012591;28;20022;-61
2022/08/01 04:11:07;;;;;;;4.18;2.58;;;;;;;17.16;100.00;98783.97;5009937;28;20029;-61
2022/08/01 04:13:32;;;;;;;7.22;2.78;;;;;;;17.34;100.00;98782.94;5014049;28;20437;-61
2022/08/01 04:15:58;;;;;;;5.55;2.60;;;;;;;17.47;100.00;98780.69;5043325;28;20033;-61
2022/08/01 04:18:24;;;;;;;4.80;2.45;;;;;;;17.48;100.00;98781.53;5043140;28;20060;-61
2022/08/01 04:20:50;;;;;;;5.95;2.60;;;;;;;17.39;100.00;98791.22;5010850;28;20033;-61
2022/08/01 04:23:19;;;;;;;4.97;2.50;;;;;;;17.49;100.00;98788.66;5017337;28;20120;-61
2022/08/01 04:25:48;;;;;;;7.63;2.90;;;;;;;17.55;100.00;98795.03;5021881;28;20025;-61
2022/08/01 04:28:16;;;;;;;6.45;2.67;;;;;;;17.53;100.00;98800.78;5008719;28;20033;-61
2022/08/01 04:30:46;;;;;;;6.78;2.80;;;;;;;17.31;100.00;98804.22;5004565;28;20423;-62
2022/08/01 04:33:15;;;;;;;6.75;2.75;;;;;;;17.30;100.00;98805.31;5048347;28;20033;-61
2022/08/01 04:35:45;;;;;;;5.82;2.70;;;;;;;17.49;100.00;98802.34;5013619;28;20136;-61
2022/08/01 04:38:14;;;;;;;7.47;3.17;;;;;;;17.60;100.00;98801.41;5009231;28;20075;-61
2022/08/01 04:40:41;;;;;;;5.43;2.83;;;;;;;17.62;100.00;98795.69;5000689;28;20026;-61
2022/08/01 04:43:07;;;;;;;5.65;2.75;;;;;;;17.65;100.00;98801.50;5022749;28;20040;-61
2022/08/01 04:45:33;;;;;;;4.72;2.80;;;;;;;17.77;99.88;98795.13;5007890;28;20495;-62
2022/08/01 04:48:00;;;;;;;4.25;2.88;;;;;;;17.71;100.00;98794.19;5008692;28;20392;-61
2022/08/01 04:50:26;;;;;;;4.55;3.03;;;;;;;17.81;100.00;98794.38;5007278;28;20041;-61
2022/08/01 04:52:52;;;;;;;9.02;2.70;;;;;;;18.02;98.32;98800.16;5010193;28;20036;-61
2022/08/01 04:55:17;;;;;;;5.13;2.80;;;;;;;18.14;96.90;98793.50;5009552;28;20025;-61
2022/08/01 04:57:44;;;;;;;5.80;2.85;;;;;;;18.18;96.34;98796.53;5008647;28;23519;-61
2022/08/01 05:00:14;;;;;;;6.10;2.88;;;;;;;18.32;95.68;98797.03;5010428;28;20025;-62
2022/08/01 05:02:39;;;;;;;6.13;2.78;;;;;;;18.56;93.36;98801.16;5029815;28;20030;-61
2022/08/01 05:05:05;;;;;;;5.50;2.92;;;;;;;18.73;91.50;98798.34;5008541;28;20021;-61
2022/08/01 05:07:32;;;;;;;3.95;2.63;;;;;;;19.02;88.17;98801.72;5009631;28;20036;-62
2022/08/01 05:09:58;;;;;;;6.93;2.80;;;;;;;19.19;86.10;98801.59;5013292;28;20018;-61
2022/08/01 05:12:23;;;;;;;6.53;2.15;;;;;;;19.37;84.40;98794.09;5017112;28;20033;-61
2022/08/01 05:14:49;;;;;;;7.47;2.60;;;;;;;19.44;83.01;98805.66;5016124;28;20028;-61
2022/08/01 05:17:14;;;;;;;3.75;2.55;;;;;;;19.55;82.20;98798.34;5015520;28;20449;-61
2022/08/01 05:19:40;;;;;;;7.78;2.28;;;;;;;19.58;81.65;98797.81;5013362;28;20099;-62
2022/08/01 05:22:08;;;;;;;4.78;2.67;;;;;;;19.58;81.83;98803.31;5018065;28;20029;-61
2022/08/01 05:24:35;;;;;;;4.07;2.17;;;;;;;19.74;80.48;98798.81;5017284;28;20029;-61
2022/08/01 05:27:01;;;;;;;3.97;2.60;;;;;;;19.94;79.03;98798.94;5016254;28;20025;-62
2022/08/01 05:29:27;;;;;;;3.47;2.03;;;;;;;20.29;75.60;98803.81;5015361;28;20036;-61
2022/08/01 05:31:52;;;;;;;5.95;2.70;;;;;;;20.57;74.57;98799.03;5015557;28;20040;-61
2022/08/01 05:34:18;;;;;;;4.93;2.58;;;;;;;21.06;71.55;98798.59;5016430;28;20087;-62
2022/08/01 05:36:44;;;;;;;4.43;2.53;;;;;;;21.23;69.92;98799.19;5014419;28;20068;-61
2022/08/01 05:39:10;;;;;;;4.35;2.53;;;;;;;21.11;70.24;98803.31;5014776;28;20131;-61
2022/08/01 05:41:36;;;;;;;7.68;2.90;;;;;;;20.96;73.62;98815.13;5014957;28;20041;-62
2022/08/01 05:44:05;;;;;;;5.60;2.53;;;;;;;20.81;74.93;98806.81;5011179;28;20032;-62
2022/08/01 05:46:31;;;;;;;;;;;;;;;20.98;74.54;98805.47;5014119;28;20033;-62
2022/08/01 05:49:01;;;;;;;6.78;2.85;;;;;;;21.30;72.70;98812.69;5014638;28;20016;-62
2022/08/01 05:51:26;;;;;;;5.57;3.03;;;;;;;21.39;72.29;98810.25;5015039;28;20022;-62
2022/08/01 05:53:53;;;;;;;6.75;2.55;;;;;;;21.36;72.86;98810.78;5013379;28;20079;-62
2022/08/01 05:56:19;;;;;;;3.30;2.63;;;;;;;21.33;72.08;98812.16;5009437;28;20033;-62
2022/08/01 05:58:44;;;;;;;6.28;2.70;;;;;;;21.43;70.98;98814.09;5012145;28;20478;-62
2022/08/01 06:01:10;;;;;;;3.55;2.60;;;;;;;21.65;68.96;98811.91;5020259;28;20116;-61
2022/08/01 06:03:35;;;;;;;5.15;2.70;;;;;;;22.08;66.77;98812.41;5030716;28;20029;-61
2022/08/01 06:06:01;;;;;;;3.85;2.70;;;;;;;22.35;65.09;98814.03;5013777;28;20464;-62
2022/08/01 06:08:29;;;;;;;5.15;2.17;;;;;;;22.58;64.09;98814.50;5014417;28;20460;-62
2022/08/01 06:10:54;;;;;;;4.88;2.30;;;;;;;22.88;61.66;98824.59;5016006;28;20022;-62
2022/08/01 06:13:20;;;;;;;3.53;2.10;;;;;;;22.83;62.07;98825.44;5016991;28;20425;-62
2022/08/01 06:15:46;;;;;;;4.95;2.38;;;;;;;23.03;60.54;98823.69;5015599;28;20057;-61
2022/08/01 06:18:11;;;;;;;7.82;2.28;;;;;;;22.95;61.37;98820.41;5015286;28;20388;-62
2022/08/01 06:20:37;;;;;;;5.18;2.72;;;;;;;23.14;60.51;98826.13;5013045;28;20028;-61
2022/08/01 06:23:02;;;;;;;7.65;2.58;;;;;;;23.39;60.35;98822.34;5015584;28;20443;-61
2022/08/01 06:25:28;;;;;;;4.85;2.50;;;;;;;23.60;59.29;98820.25;5013263;28;20032;-61
2022/08/01 06:27:53;;;;;;;4.93;2.30;;;;;;;23.61;58.99;98815.59;5012726;28;20044;-61
2022/08/01 06:30:19;;;;;;;4.32;2.35;;;;;;;24.06;58.12;98819.06;5008288;28;20036;-62
2022/08/01 06:32:45;;;;;;;5.57;2.10;;;;;;;24.45;57.05;98821.72;5000842;28;20472;-61
2022/08/01 06:35:10;;;;;;;4.30;2.28;;;;;;;25.43;54.02;98814.91;5009470;28;20087;-61
2022/08/01 06:37:36;;;;;;;8.35;1.73;;;;;;;26.22;51.92;98814.94;5002801;28;22287;-61
2022/08/01 06:40:04;;;;;;;3.67;2.00;;;;;;;27.10;49.17;98817.63;5038448;28;20064;-63
2022/08/01 06:42:35;;;;;;;5.28;2.03;;;;;;;28.27;46.83;98813.09;5009359;28;20029;-61
2022/08/01 06:45:11;;;;;;;3.90;1.80;;;;;;;28.78;45.11;98808.91;5011138;28;20025;-61
2022/08/01 06:47:37;;;;;;;5.00;1.60;;;;;;;30.05;42.49;98811.56;5017555;28;20041;-61
2022/08/01 06:50:04;;;;;;;2.92;1.60;;;;;;;30.56;41.34;98810.59;5009105;28;20551;-61
2022/08/01 06:52:29;;;;;;;5.20;1.80;;;;;;;31.66;39.34;98824.53;5015247;28;20106;-61
2022/08/01 06:54:55;;;;;;;2.42;1.60;;;;;;;32.46;37.81;98822.53;5014197;28;20075;-62
2022/08/01 06:57:20;;;;;;;4.15;1.27;;;;;;;34.05;35.36;98813.84;5017266;28;20056;-62
2022/08/01 06:59:46;;;;;;;2.78;1.50;;;;;;;35.10;33.57;98818.13;5013019;28;20025;-61
2022/08/01 07:02:11;;;;;;;1.98;1.23;;;;;;;35.16;33.05;98818.66;5013191;28;20029;-61
2022/08/01 07:04:37;;;;;;;3.72;1.50;;;;;;;35.45;32.81;98819.28;5009492;28;20022;-61
2022/08/01 07:07:03;;;;;;;2.55;1.20;;;;;;;35.63;32.58;98819.69;5015249;28;20033;-62
2022/08/01 07:09:28;;;;;;;1.70;1.25;;;;;;;37.13;30.52;98822.44;5013766;28;20029;-62
2022/08/01 07:11:55;;;;;;;2.60;1.30;;;;;;;37.62;30.55;98793.25;5008157;28;20021;-62
2022/08/01 07:14:21;;;;;;;2.55;1.20;;;;;;;36.52;30.96;98817.75;5011550;28;20021;-61
2022/08/01 07:16:47;;;;;;;1.15;0.90;;;;;;;35.63;32.06;98811.25;5011865;28;20048;-62
2022/08/01 07:19:13;;;;;;;1.00;0.80;;;;;;;35.33;32.91;98807.00;5010121;28;20022;-62
2022/08/01 07:21:39;;;;;;;5.53;1.40;;;;;;;34.26;34.29;98808.00;5012316;28;20066;-62
2022/08/01 07:24:05;;;;;;;1.30;0.65;;;;;;;35.39;32.65;98810.31;5010127;28;20021;-62
2022/08/01 07:26:31;;;;;;;3.22;0.98;;;;;;;36.50;31.42;98806.06;5011818;28;20029;-62
2022/08/01 07:28:57;;;;;;;2.47;0.70;;;;;;;36.83;30.99;98803.41;5009738;28;20480;-62
2022/08/01 07:31:23;;;;;;;1.92;0.80;;;;;;;36.79;30.66;98801.75;5009335;28;20041;-62
2022/08/01 07:33:49;;;;;;;1.52;0.68;;;;;;;36.87;30.15;98805.50;5011612;28;20093;-62
2022/08/01 07:36:15;;;;;;;5.85;0.70;;;;;;;37.94;29.20;98806.94;5015561;28;20017;-62
2022/08/01 07:38:41;;;;;;;1.42;0.98;;;;;;;37.28;29.80;98807.34;5014128;28;20032;-62
2022/08/01 07:41:06;;;;;;;2.28;0.60;;;;;;;36.50;31.19;98800.41;5010573;28;20020;-62
2022/08/01 07:43:31;;;;;;;2.40;0.80;;;;;;;34.32;33.89;98807.72;5009317;28;20105;-62
2022/08/01 07:45:57;;;;;;;1.02;0.68;;;;;;;34.40;34.02;98799.16;5012935;28;20120;-62
2022/08/01 07:48:23;;;;;;;1.05;0.65;;;;;;;35.65;31.94;98797.63;5009838;28;20030;-62
2022/08/01 07:50:50;;;;;;;1.70;0.90;;;;;;;35.29;31.90;98796.84;5012978;28;20083;-62
2022/08/01 07:53:15;;;;;;;0.65;0.60;;;;;;;34.98;32.55;98792.94;5011803;28;20043;-62
2022/08/01 07:55:41;;;;;;;3.00;0.80;;;;;;;35.67;31.54;98798.88;5020393;28;20021;-62
2022/08/01 07:58:07;;;;;;;2.75;0.73;;;;;;;36.72;31.25;98796.78;5024376;28;20140;-62
2022/08/01 08:00:32;;;;;;;1.60;0.80;;;;;;;37.71;29.80;98798.63;5010686;28;20048;-62
2022/08/01 08:02:59;;;;;;;2.38;0.60;;;;;;;38.58;28.39;98799.13;5007874;28;20025;-62
2022/08/01 08:05:27;;;;;;;3.10;0.80;;;;;;;39.45;27.35;98801.31;5013652;28;20021;-62
2022/08/01 08:07:53;;;;;;;2.67;0.75;;;;;;;35.81;31.47;98801.16;5011422;28;20033;-62
2022/08/01 08:10:18;;;;;;;1.50;0.65;;;;;;;35.66;32.39;98804.88;5019946;28;20079;-62
2022/08/01 08:12:46;;;;;;;1.58;0.80;;;;;;;35.72;31.96;98798.59;5010771;28;20386;-62
2022/08/01 08:15:12;;;;;;;1.75;0.70;;;;;;;34.12;34.30;98804.03;5007821;28;20388;-62
2022/08/01 08:17:38;;;;;;;1.58;0.80;;;;;;;31.91;37.48;98809.78;5011749;28;20029;-62
2022/08/01 08:20:06;;;;;;;1.10;0.85;;;;;;;30.65;40.08;98799.38;5010708;28;20033;-62
2022/08/01 08:22:31;;;;;;;2.15;1.08;;;;;;;29.90;42.18;98793.41;5024711;28;20037;-62
2022/08/01 08:24:56;;;;;;;1.85;1.00;;;;;;;33.47;36.61;98792.94;5012032;28;20049;-62
2022/08/01 08:27:22;;;;;;;1.15;0.90;;;;;;;33.49;35.96;98794.22;5012813;28;20029;-61
2022/08/01 08:29:47;;;;;;;1.95;1.20;;;;;;;33.27;35.42;98789.94;5007437;28;20528;-62
2022/08/01 08:32:13;;;;;;;3.22;1.35;;;;;;;34.65;33.54;98782.91;5006485;28;20025;-61
2022/08/01 08:34:38;;;;;;;2.22;0.90;;;;;;;33.53;35.38;98781.09;5031251;28;20532;-62
2022/08/01 08:37:04;;;;;;;0.93;0.85;;;;;;;34.71;33.97;98802.31;5046990;28;20040;-62
2022/08/01 08:39:29;;;;;;;2.67;1.23;;;;;;;34.50;33.92;98789.34;5012553;28;20439;-62
2022/08/01 08:41:59;;;;;;;1.80;0.88;;;;;;;34.09;34.85;98788.72;5006575;28;20095;-62
2022/08/01 08:44:25;;;;;;;1.33;0.70;;;;;;;32.56;36.66;98802.50;5012059;28;20112;-62
2022/08/01 08:46:51;;;;;;;1.15;0.70;;;;;;;34.27;35.06;98786.38;5013092;28;20120;-62
2022/08/01 08:49:22;;;;;;;2.35;0.88;;;;;;;35.45;32.88;98791.97;5011591;28;20104;-62
2022/08/01 08:51:49;;;;;;;1.20;0.77;;;;;;;36.79;30.53;98785.63;5025693;28;20033;-62
2022/08/01 08:54:17;;;;;;;1.63;0.73;;;;;;;35.88;31.42;98792.88;5011868;28;20104;-62
2022/08/01 08:56:43;;;;;;;1.83;0.80;;;;;;;37.10;30.38;98780.88;5045658;28;20366;-62
2022/08/01 08:59:13;;;;;;;3.88;0.63;;;;;;;37.54;29.71;98788.72;5012745;28;20520;-62
2022/08/01 09:01:38;;;;;;;1.75;0.68;;;;;;;37.59;29.51;98793.22;5007914;28;20030;-63
2022/08/01 09:04:04;;;;;;;1.23;0.80;;;;;;;37.00;30.16;98792.78;5009056;28;20071;-63
2022/08/01 09:06:30;;;;;;;0.82;0.50;;;;;;;35.04;32.46;98794.28;5041930;28;20361;-63
2022/08/01 09:08:57;;;;;;;0.85;0.68;;;;;;;35.24;32.44;98788.69;5033883;28;20029;-63
2022/08/01 09:11:23;;;;;;;1.38;0.82;;;;;;;36.63;30.57;98796.25;5003749;28;20031;-63
2022/08/01 09:14:12;;;;;;;1.20;0.80;;;;;;;34.23;33.36;98791.06;5004365;28;20029;-62
2022/08/01 09:16:43;;;;;;;0.93;0.60;;;;;;;36.37;30.48;98789.34;5024513;28;20029;-62
2022/08/01 09:19:20;;;;;;;4.00;0.80;;;;;;;38.21;28.95;98789.88;5024432;28;20055;-62
2022/08/01 09:22:00;;;;;;;1.23;0.70;;;;;;;37.28;29.53;98793.22;5011058;28;20029;-62
2022/08/01 09:24:30;;;;;;;1.52;0.65;;;;;;;36.80;30.11;98798.53;5015922;28;20028;-62
2022/08/01 09:26:55;;;;;;;2.22;0.60;;;;;;;37.54;29.34;98797.19;5042605;28;20049;-62
2022/08/01 09:29:23;;;;;;;0.70;0.55;;;;;;;38.39;28.37;98796.50;5008129;28;20088;-62
2022/08/01 09:31:49;;;;;;;2.15;0.93;;;;;;;35.81;31.13;98797.53;5007166;28;20029;-63
2022/08/01 09:34:26;;;;;;;1.00;0.85;;;;;;;34.31;33.49;98792.06;5009968;28;20337;-62
2022/08/01 09:36:57;;;;;;;4.38;1.00;;;;;;;31.30;37.88;98801.94;5001554;28;21092;-62
2022/08/01 09:39:31;;;;;;;1.27;1.10;;;;;;;31.25;39.09;98802.16;5004820;28;20137;-62
2022/08/01 09:41:59;;;;;;;2.25;1.30;;;;;;;32.83;36.52;98797.34;5006357;28;20076;-62
2022/08/01 09:44:37;;;;;;;1.98;1.35;;;;;;;33.06;35.79;98792.09;5010904;28;20033;-64
2022/08/01 09:47:02;;;;;;;2.40;1.20;;;;;;;32.51;36.67;98797.97;5029051;22;20033;-62
2022/08/01 09:49:34;;;;;;;1.92;1.70;;;;;;;31.70;37.81;98793.88;5102059;28;20473;-62
2022/08/01 09:52:11;;;;;;;2.63;1.10;;;;;;;31.66;37.96;98802.16;5085186;28;20477;-60
2022/08/01 09:54:36;;;;;;;2.42;1.27;;;;;;;33.87;34.58;98794.88;5071049;28;20044;-62
2022/08/01 09:57:12;;;;;;;2.47;0.85;;;;;;;32.73;35.79;98793.88;5074674;28;20077;-61
2022/08/01 09:59:41;;;;;;;1.30;0.80;;;;;;;33.52;35.60;98796.28;5073443;28;20375;-61
2022/08/01 10:02:08;;;;;;;1.60;1.10;;;;;;;33.72;34.72;98802.06;5063547;28;20336;-66
2022/08/01 10:04:34;;;;;;;1.40;0.95;;;;;;;32.24;37.33;98793.81;5074905;28;20035;-68
2022/08/01 10:07:07;;;;;;;3.05;1.27;;;;;;;33.17;36.17;98796.88;5070717;28;20027;-66
2022/08/01 10:09:36;;;;;;;1.52;1.10;;;;;;;32.37;36.69;98797.44;5062527;28;20122;-68
2022/08/01 10:12:03;;;;;;;4.15;1.10;;;;;;;31.65;37.53;98789.34;5074351;28;20107;-66
2022/08/01 10:14:29;;;;;;;5.47;1.15;;;;;;;31.74;38.03;98794.03;5072984;28;20568;-66
2022/08/01 10:16:57;;;;;;;2.40;1.02;;;;;;;31.61;37.87;98795.94;5075302;28;20031;-66
2022/08/01 10:19:25;;;;;;;2.87;1.17;;;;;;;33.28;35.05;98780.38;5069419;28;20487;-66
2022/08/01 10:21:53;;;;;;;3.10;1.13;;;;;;;31.67;36.43;98775.78;5073015;28;20025;-66
2022/08/01 10:24:20;;;;;;;4.28;1.05;;;;;;;32.65;35.36;98772.41;5068057;28;20123;-66
2022/08/01 10:26:51;;;;;;;1.27;1.05;;;;;;;31.49;36.92;98791.09;5074710;28;20033;-65
2022/08/01 10:29:18;;;;;;;2.00;1.10;;;;;;;31.07;37.71;98779.91;5068237;28;20076;-66
2022/08/01 10:31:45;;;;;;;1.70;0.90;;;;;;;30.57;39.00;98778.72;5072394;28;20126;-66
2022/08/01 10:34:15;;;;;;;3.97;1.10;;;;;;;30.70;39.38;98778.81;5067186;28;20028;-66
2022/08/01 10:36:42;;;;;;;1.42;1.02;;;;;;;31.50;38.30;98781.56;5071210;28;20059;-66
2022/08/01 10:39:11;;;;;;;1.88;0.80;;;;;;;32.78;35.60;98772.38;5068489;28;20755;-66
2022/08/01 10:41:39;;;;;;;0.93;0.80;;;;;;;33.56;34.93;98782.38;5072439;28;20032;-66
2022/08/01 10:44:07;;;;;;;4.60;0.90;;;;;;;33.82;34.00;98773.50;5074563;28;20118;-68
2022/08/01 10:46:37;;;;;;;1.08;0.65;;;;;;;33.70;33.82;98774.41;5072328;28;20486;-68
2022/08/01 10:49:10;;;;;;;1.98;0.80;;;;;;;33.49;34.55;98774.56;5067607;28;20127;-60
2022/08/01 10:51:38;;;;;;;1.75;0.73;;;;;;;33.11;35.06;98786.25;5067759;28;20026;-67
2022/08/01 10:54:05;;;;;;;1.60;0.90;;;;;;;32.91;35.32;98777.63;5069818;28;20188;-66
2022/08/01 10:56:51;;;;;;;0.90;0.73;;;;;;;32.52;35.93;98779.19;5070633;28;20063;-62
2022/08/01 10:59:26;;;;;;;1.50;0.80;;;;;;;32.33;36.60;98776.91;5067026;28;20028;-62
2022/08/01 11:02:02;;;;;;;2.15;0.90;;;;;;;32.40;36.07;98768.75;5066044;28;20028;-62
2022/08/01 11:04:40;;;;;;;1.95;0.90;;;;;;;31.98;36.61;98777.31;5071107;28;20033;-62
2022/08/01 11:07:07;;;;;;;3.75;1.00;;;;;;;31.04;38.24;98769.41;5071168;28;20031;-62
2022/08/01 11:09:42;;;;;;;2.08;1.02;;;;;;;31.79;37.43;98772.22;5064990;28;20111;-62
2022/08/01 11:12:11;;;;;;;1.88;0.80;;;;;;;34.25;33.43;98757.81;5062723;28;20368;-62
2022/08/01 11:14:58;;;;;;;1.40;0.73;;;;;;;35.36;31.85;98762.44;5069325;28;20019;-62
2022/08/01 11:17:39;;;;;;;2.92;0.80;;;;;;;36.37;30.72;98763.19;5069883;28;20024;-62
2022/08/01 11:20:09;;;;;;;3.40;0.60;;;;;;;38.15;28.21;98753.50;5071667;28;20111;-62
2022/08/01 11:23:01;;;;;;;2.95;1.23;;;;;;;37.37;28.43;98749.78;5070284;28;20028;-62
2022/08/01 11:25:41;;;;;;;1.02;0.77;;;;;;;35.82;30.75;98752.13;5048768;28;20151;-62
2022/08/01 11:28:25;;;;;;;0.93;0.68;;;;;;;33.89;33.15;98754.06;5081034;28;20046;-62
2022/08/01 11:30:54;;;;;;;1.45;0.60;;;;;;;36.09;30.69;98747.41;5059524;28;20506;-68
2022/08/01 11:33:40;;;;;;;0.65;0.50;;;;;;;37.84;28.85;98743.50;5065122;28;20769;-68
2022/08/01 11:36:12;;;;;;;2.22;0.50;;;;;;;37.61;28.70;98738.00;5052997;28;20032;-68
2022/08/01 11:38:39;;;;;;;1.45;0.65;;;;;;;35.38;31.36;98744.00;5067560;28;20024;-62
2022/08/01 11:41:23;;;;;;;1.67;0.82;;;;;;;34.87;32.32;98730.84;5064734;28;20046;-62
2022/08/01 11:44:08;;;;;;;1.02;0.80;;;;;;;36.35;30.40;98726.13;5067270;28;20433;-67